Flight Track Log - Related Links

Times and Time Zones

All times are in EDT time to prevent confusion due to time zone crossing. See the PDT4226 flight status page for this flight to view local times or setup timezone preferences in your user account.

Time Position Orientation Groundspeed Altitude Reporting Facility
EDT Latitude Longitude Course Direction KTS MPH feet Rate Location/Type
Sat 12:17:55 PM 39.9000 -75.2333 311° West 117 135 700  Level Philadelphia TRACON
Sat 12:18:55 PM 39.9000 -75.2833 270° West 111 128 2,300 1,286 Climbing Philadelphia TRACON
Sat 12:20:00 PM 40.0975 -75.3098 311° West  Level Estimated
Sat 12:20:01 PM 39.9333 -75.3167 323° Northwest 153 176 3,400  Level Philadelphia TRACON
Sat 12:20:55 PM 39.9500 -75.3667 294° West 143 165 4,400 1,158 Climbing Philadelphia TRACON
Sat 12:21:00 PM 40.1725 -75.3328 311° West  Level Estimated
Sat 12:21:55 PM 39.9500 -75.4000 270° West 121 139 5,600  Level Philadelphia TRACON
Sat 12:22:00 PM 40.2079 -75.4225 297° West  Level FlightAware Approximate
Sat 12:22:49 PM 39.9500 -75.4500 270° West 122 140 6,700  Level Philadelphia TRACON
Sat 12:23:00 PM 40.2834 -75.4429 311° West  Level Estimated
Sat 12:23:21 PM 39.9469 -75.4714 259° West 120 138 7,300  Level New York Center
Sat 12:24:21 PM 39.9811 -75.5036 324° Northwest 186 214 8,300 1,050 Climbing New York Center
Sat 12:25:21 PM 40.0247 -75.5067 357° North 185 213 9,400 1,000 Climbing New York Center
Sat 12:26:21 PM 40.0722 -75.5178 350° North 175 201 10,300 1,000 Climbing New York Center
Sat 12:27:21 PM 40.1172 -75.5372 342° North 170 196 11,400 850 Climbing New York Center
Sat 12:28:21 PM 40.1628 -75.5486 349° North 165 190 12,000 300 Climbing New York Center
Sat 12:29:21 PM 40.2186 -75.5550 355° North 186 214 12,000  Level New York Center
Sat 12:30:21 PM 40.2622 -75.6125 315° West 196 226 12,000  Level New York Center
Sat 12:31:21 PM 40.2950 -75.6747 305° West 207 238 12,000  Level New York Center
Sat 12:32:21 PM 40.3406 -75.7325 316° Northwest 212 244 12,000 100 Level New York Center
Sat 12:33:21 PM 40.3758 -75.7867 311° West 217 250 12,200 300 Climbing New York Center
Sat 12:34:21 PM 40.4108 -75.8464 308° West 217 250 12,600 450 Climbing New York Center
Sat 12:35:21 PM 40.4458 -75.9036 309° West 207 238 13,100 500 Climbing New York Center
Sat 12:36:21 PM 40.4831 -75.9583 312° West 207 238 13,600 450 Climbing New York Center
Sat 12:37:21 PM 40.5197 -76.0211 308° West 200 230 14,000 200 Climbing New York Center
Sat 12:38:21 PM 40.5531 -76.0728 310° West 200 230 14,000  Level New York Center
Sat 12:39:21 PM 40.5919 -76.1331 310° West 207 238 14,000  Level New York Center
Sat 12:40:21 PM 40.6347 -76.2022 309° West 217 250 14,000  Level New York Center
Sat 12:41:21 PM 40.6800 -76.2578 317° Northwest 217 250 14,000 -50 Level New York Center
Sat 12:42:21 PM 40.7556 -76.2475 North 230 265 13,900 -50 Descending New York Center
Sat 12:43:21 PM 40.8228 -76.2336 North 253 291 13,900  Level New York Center
Sat 12:44:21 PM 40.9042 -76.2292 North 260 299 13,900  Level New York Center
Sat 12:45:21 PM 40.9775 -76.2239 North 265 305 13,900 50 Level New York Center
Sat 12:46:21 PM 41.0442 -76.2211 North 265 305 14,000 50 Climbing New York Center
Sat 12:47:21 PM 41.1153 -76.2186 North 260 299 14,000  Level New York Center
Sat 12:48:21 PM 41.1967 -76.2114 North 260 299 14,000  Level New York Center
Sat 12:49:21 PM 41.2703 -76.2006 North 260 299 14,000  Level New York Center
Sat 12:50:21 PM 41.3453 -76.2011 360° North 255 293 14,000  Level New York Center
Sat 12:51:21 PM 41.4081 -76.1953 North 255 293 14,000  Level New York Center
Sat 12:52:21 PM 41.4814 -76.1844 North 255 293 14,000 -300 Level New York Center
Sat 12:53:21 PM 41.5625 -76.1828 North 255 293 13,400 -1,400 Descending New York Center
Sat 12:54:21 PM 41.6483 -76.1786 North 279 321 11,200 -2,000 Descending New York Center
Sat 12:55:21 PM 41.7256 -76.1264 27° Northeast 297 342 9,400 -1,100 Descending New York Center
Sat 12:56:21 PM 41.7881 -76.0814 28° Northeast 297 342 9,000 -800 Descending New York Center
Sat 12:57:21 PM 41.8611 -76.0289 28° Northeast 292 336 7,800 -1,400 Descending New York Center
Sat 12:58:21 PM 41.9386 -75.9708 29° Northeast 297 342 6,200 -1,450 Descending New York Center
Sat 12:59:21 PM 42.0147 -75.9461 14° North 288 331 4,900 -1,150 Descending New York Center
Sat 01:00:21 PM 42.0897 -75.9408 North 276 318 3,900 -900 Descending New York Center
Sat 01:01:21 PM 42.1567 -75.9375 North 261 300 3,100 -700 Descending New York Center
Sat 01:02:21 PM 42.2025 -75.9356 North 213 245 2,500 -400 Descending New York Center
Sat 01:03:21 PM 42.2586 -75.9344 North 200 230 2,300 -200 Descending New York Center

Login

Don't have an account? Register now (free) for customized features, flight alerts, and more!